sensor_id;sensor_type;location;lat;lon;timestamp;temperature;humidity
52030;DHT22;38043;53.224;6.580;2022-08-03T00:01:39;19.90;99.90
52030;DHT22;38043;53.224;6.580;2022-08-03T00:04:05;19.90;99.90
52030;DHT22;38043;53.224;6.580;2022-08-03T00:06:34;19.90;99.90
52030;DHT22;38043;53.224;6.580;2022-08-03T00:09:04;19.80;99.90
52030;DHT22;38043;53.224;6.580;2022-08-03T00:11:30;19.80;99.90
52030;DHT22;38043;53.224;6.580;2022-08-03T00:13:58;19.80;99.90
52030;DHT22;38043;53.224;6.580;2022-08-03T00:16:24;19.80;99.90
52030;DHT22;38043;53.224;6.580;2022-08-03T00:18:51;19.80;99.90
52030;DHT22;38043;53.224;6.580;2022-08-03T00:21:17;19.80;99.90
52030;DHT22;38043;53.224;6.580;2022-08-03T00:23:43;19.70;99.90
52030;DHT22;38043;53.224;6.580;2022-08-03T00:26:09;19.70;99.90
52030;DHT22;38043;53.224;6.580;2022-08-03T00:28:34;19.70;99.90
52030;DHT22;38043;53.224;6.580;2022-08-03T00:31:00;19.70;99.90
52030;DHT22;38043;53.224;6.580;2022-08-03T00:33:26;19.60;99.90
52030;DHT22;38043;53.224;6.580;2022-08-03T00:35:52;19.70;99.90
52030;DHT22;38043;53.224;6.580;2022-08-03T00:38:18;19.60;99.90
52030;DHT22;38043;53.224;6.580;2022-08-03T00:40:44;19.70;99.90
52030;DHT22;38043;53.224;6.580;2022-08-03T00:43:10;19.60;99.90
52030;DHT22;38043;53.224;6.580;2022-08-03T00:45:38;19.60;99.90
52030;DHT22;38043;53.224;6.580;2022-08-03T00:48:05;19.60;99.90
52030;DHT22;38043;53.224;6.580;2022-08-03T00:50:34;19.60;99.90
52030;DHT22;38043;53.224;6.580;2022-08-03T00:53:01;19.60;99.90
52030;DHT22;38043;53.224;6.580;2022-08-03T00:55:29;19.60;99.90
52030;DHT22;38043;53.224;6.580;2022-08-03T00:57:55;19.60;99.90
52030;DHT22;38043;53.224;6.580;2022-08-03T01:00:24;19.60;99.90
52030;DHT22;38043;53.224;6.580;2022-08-03T01:02:51;19.60;99.90
52030;DHT22;38043;53.224;6.580;2022-08-03T01:05:17;19.50;99.90
52030;DHT22;38043;53.224;6.580;2022-08-03T01:11:01;19.50;99.90
52030;DHT22;38043;53.224;6.580;2022-08-03T01:13:48;19.50;99.90
52030;DHT22;38043;53.224;6.580;2022-08-03T01:19:19;19.40;99.90
52030;DHT22;38043;53.224;6.580;2022-08-03T01:30:31;19.30;99.90
52030;DHT22;38043;53.224;6.580;2022-08-03T01:33:05;19.40;99.90
52030;DHT22;38043;53.224;6.580;2022-08-03T01:36:08;19.30;99.90
52030;DHT22;38043;53.224;6.580;2022-08-03T01:38:42;19.30;99.90
52030;DHT22;38043;53.224;6.580;2022-08-03T01:41:13;19.30;99.90
52030;DHT22;38043;53.224;6.580;2022-08-03T01:43:41;19.30;99.90
52030;DHT22;38043;53.224;6.580;2022-08-03T01:46:09;19.30;99.90
52030;DHT22;38043;53.224;6.580;2022-08-03T01:48:37;19.20;99.90
52030;DHT22;38043;53.224;6.580;2022-08-03T01:51:08;19.20;99.90
52030;DHT22;38043;53.224;6.580;2022-08-03T01:53:35;19.30;99.90
52030;DHT22;38043;53.224;6.580;2022-08-03T01:56:03;19.20;99.90
52030;DHT22;38043;53.224;6.580;2022-08-03T01:58:31;19.20;99.90
52030;DHT22;38043;53.224;6.580;2022-08-03T02:01:00;19.20;99.90
52030;DHT22;38043;53.224;6.580;2022-08-03T02:03:28;19.20;99.90
52030;DHT22;38043;53.224;6.580;2022-08-03T02:05:57;19.10;99.90
52030;DHT22;38043;53.224;6.580;2022-08-03T02:08:24;19.10;99.90
52030;DHT22;38043;53.224;6.580;2022-08-03T02:10:56;19.10;99.90
52030;DHT22;38043;53.224;6.580;2022-08-03T02:13:23;19.10;99.90
52030;DHT22;38043;53.224;6.580;2022-08-03T02:15:51;19.10;99.90
52030;DHT22;38043;53.224;6.580;2022-08-03T02:18:19;19.10;99.90
52030;DHT22;38043;53.224;6.580;2022-08-03T02:20:45;19.10;99.90
52030;DHT22;38043;53.224;6.580;2022-08-03T02:23:15;19.10;99.90
52030;DHT22;38043;53.224;6.580;2022-08-03T02:25:44;19.10;99.90
52030;DHT22;38043;53.224;6.580;2022-08-03T02:28:15;19.10;99.90
52030;DHT22;38043;53.224;6.580;2022-08-03T02:30:43;19.10;99.90
52030;DHT22;38043;53.224;6.580;2022-08-03T02:33:20;19.00;99.90
52030;DHT22;38043;53.224;6.580;2022-08-03T02:35:48;19.00;99.90
52030;DHT22;38043;53.224;6.580;2022-08-03T02:38:15;19.00;99.90
52030;DHT22;38043;53.224;6.580;2022-08-03T02:40:45;19.00;99.90
52030;DHT22;38043;53.224;6.580;2022-08-03T02:43:15;18.90;99.90
52030;DHT22;38043;53.224;6.580;2022-08-03T02:45:44;19.00;99.90
52030;DHT22;38043;53.224;6.580;2022-08-03T02:48:11;18.90;99.90
52030;DHT22;38043;53.224;6.580;2022-08-03T02:50:44;18.90;99.90
52030;DHT22;38043;53.224;6.580;2022-08-03T02:53:11;18.90;99.90
52030;DHT22;38043;53.224;6.580;2022-08-03T02:55:38;18.90;99.90
52030;DHT22;38043;53.224;6.580;2022-08-03T02:58:05;18.90;99.90
52030;DHT22;38043;53.224;6.580;2022-08-03T03:00:32;18.90;99.90
52030;DHT22;38043;53.224;6.580;2022-08-03T03:03:01;18.90;99.90
52030;DHT22;38043;53.224;6.580;2022-08-03T03:05:29;18.80;99.90
52030;DHT22;38043;53.224;6.580;2022-08-03T03:07:56;18.80;99.90
52030;DHT22;38043;53.224;6.580;2022-08-03T03:10:22;18.80;99.90
52030;DHT22;38043;53.224;6.580;2022-08-03T03:12:55;18.80;99.90
52030;DHT22;38043;53.224;6.580;2022-08-03T03:15:22;18.80;99.90
52030;DHT22;38043;53.224;6.580;2022-08-03T03:17:49;18.80;99.90
52030;DHT22;38043;53.224;6.580;2022-08-03T03:20:16;18.80;99.90
52030;DHT22;38043;53.224;6.580;2022-08-03T03:22:44;18.80;99.90
52030;DHT22;38043;53.224;6.580;2022-08-03T03:25:14;18.80;99.90
52030;DHT22;38043;53.224;6.580;2022-08-03T03:27:40;18.80;99.90
52030;DHT22;38043;53.224;6.580;2022-08-03T03:30:07;18.70;99.90
52030;DHT22;38043;53.224;6.580;2022-08-03T03:32:33;18.70;99.90
52030;DHT22;38043;53.224;6.580;2022-08-03T03:35:08;18.70;99.90
52030;DHT22;38043;53.224;6.580;2022-08-03T03:37:34;18.70;99.90
52030;DHT22;38043;53.224;6.580;2022-08-03T03:40:00;18.70;99.90
52030;DHT22;38043;53.224;6.580;2022-08-03T03:42:26;18.70;99.90
52030;DHT22;38043;53.224;6.580;2022-08-03T03:44:51;18.60;99.90
52030;DHT22;38043;53.224;6.580;2022-08-03T03:47:17;18.70;99.90
52030;DHT22;38043;53.224;6.580;2022-08-03T03:49:44;18.60;99.90
52030;DHT22;38043;53.224;6.580;2022-08-03T03:52:12;18.60;99.90
52030;DHT22;38043;53.224;6.580;2022-08-03T03:54:42;18.60;99.90
52030;DHT22;38043;53.224;6.580;2022-08-03T03:57:08;18.60;99.90
52030;DHT22;38043;53.224;6.580;2022-08-03T03:59:42;18.60;99.90
52030;DHT22;38043;53.224;6.580;2022-08-03T04:02:09;18.60;99.90
52030;DHT22;38043;53.224;6.580;2022-08-03T04:04:36;18.60;99.90
52030;DHT22;38043;53.224;6.580;2022-08-03T04:07:23;18.60;99.90
52030;DHT22;38043;53.224;6.580;2022-08-03T04:10:16;18.60;99.90
52030;DHT22;38043;53.224;6.580;2022-08-03T04:13:03;18.60;99.90
52030;DHT22;38043;53.224;6.580;2022-08-03T04:15:32;18.60;99.90
52030;DHT22;38043;53.224;6.580;2022-08-03T04:17:58;18.60;99.90
52030;DHT22;38043;53.224;6.580;2022-08-03T04:20:29;18.60;99.90
52030;DHT22;38043;53.224;6.580;2022-08-03T04:22:57;18.60;99.90
52030;DHT22;38043;53.224;6.580;2022-08-03T04:25:27;18.60;99.90
52030;DHT22;38043;53.224;6.580;2022-08-03T04:27:59;18.60;99.90
52030;DHT22;38043;53.224;6.580;2022-08-03T04:30:27;18.60;99.90
52030;DHT22;38043;53.224;6.580;2022-08-03T04:32:55;18.60;99.90
52030;DHT22;38043;53.224;6.580;2022-08-03T04:35:28;18.60;99.90
52030;DHT22;38043;53.224;6.580;2022-08-03T04:37:56;18.60;99.90
52030;DHT22;38043;53.224;6.580;2022-08-03T04:40:29;18.60;99.90
52030;DHT22;38043;53.224;6.580;2022-08-03T04:42:57;18.60;99.90
52030;DHT22;38043;53.224;6.580;2022-08-03T04:45:24;18.50;99.90
52030;DHT22;38043;53.224;6.580;2022-08-03T04:47:51;18.60;99.90
52030;DHT22;38043;53.224;6.580;2022-08-03T04:50:18;18.60;99.90
52030;DHT22;38043;53.224;6.580;2022-08-03T04:52:44;18.60;99.90
52030;DHT22;38043;53.224;6.580;2022-08-03T04:55:29;18.60;99.90
52030;DHT22;38043;53.224;6.580;2022-08-03T04:57:56;18.70;99.90
52030;DHT22;38043;53.224;6.580;2022-08-03T05:00:22;18.70;99.90
52030;DHT22;38043;53.224;6.580;2022-08-03T05:02:47;18.70;99.90
52030;DHT22;38043;53.224;6.580;2022-08-03T05:05:14;18.70;99.90
52030;DHT22;38043;53.224;6.580;2022-08-03T05:07:40;18.70;99.90
52030;DHT22;38043;53.224;6.580;2022-08-03T05:10:08;18.80;99.90
52030;DHT22;38043;53.224;6.580;2022-08-03T05:12:40;18.80;99.90
52030;DHT22;38043;53.224;6.580;2022-08-03T05:15:06;18.80;99.90
52030;DHT22;38043;53.224;6.580;2022-08-03T05:17:32;18.80;99.90
52030;DHT22;38043;53.224;6.580;2022-08-03T05:20:01;18.90;99.90
52030;DHT22;38043;53.224;6.580;2022-08-03T05:22:28;18.90;99.90
52030;DHT22;38043;53.224;6.580;2022-08-03T05:24:54;19.00;99.90
52030;DHT22;38043;53.224;6.580;2022-08-03T05:27:20;19.00;99.90
52030;DHT22;38043;53.224;6.580;2022-08-03T05:29:46;19.00;99.90
52030;DHT22;38043;53.224;6.580;2022-08-03T05:32:12;19.10;99.90
52030;DHT22;38043;53.224;6.580;2022-08-03T05:34:38;19.10;99.90
52030;DHT22;38043;53.224;6.580;2022-08-03T05:37:04;19.20;99.90
52030;DHT22;38043;53.224;6.580;2022-08-03T05:39:29;19.20;99.90
52030;DHT22;38043;53.224;6.580;2022-08-03T05:41:55;19.30;99.90
52030;DHT22;38043;53.224;6.580;2022-08-03T05:44:24;19.40;99.90
52030;DHT22;38043;53.224;6.580;2022-08-03T05:46:50;19.40;99.90
52030;DHT22;38043;53.224;6.580;2022-08-03T05:49:16;19.50;99.90
52030;DHT22;38043;53.224;6.580;2022-08-03T05:51:42;19.50;99.90
52030;DHT22;38043;53.224;6.580;2022-08-03T05:54:08;19.60;99.90
52030;DHT22;38043;53.224;6.580;2022-08-03T05:56:34;19.70;99.90
52030;DHT22;38043;53.224;6.580;2022-08-03T05:58:59;19.70;99.90
52030;DHT22;38043;53.224;6.580;2022-08-03T06:01:25;19.80;99.90
52030;DHT22;38043;53.224;6.580;2022-08-03T06:03:54;19.90;99.90
52030;DHT22;38043;53.224;6.580;2022-08-03T06:06:20;19.90;99.90
52030;DHT22;38043;53.224;6.580;2022-08-03T06:08:45;20.00;99.90
52030;DHT22;38043;53.224;6.580;2022-08-03T06:11:13;20.10;99.90
52030;DHT22;38043;53.224;6.580;2022-08-03T06:13:39;20.10;99.90
52030;DHT22;38043;53.224;6.580;2022-08-03T06:16:08;20.20;99.90
52030;DHT22;38043;53.224;6.580;2022-08-03T06:18:34;20.20;99.90
52030;DHT22;38043;53.224;6.580;2022-08-03T06:21:00;20.30;99.90
52030;DHT22;38043;53.224;6.580;2022-08-03T06:23:26;20.30;99.90
52030;DHT22;38043;53.224;6.580;2022-08-03T06:25:52;20.40;99.90
52030;DHT22;38043;53.224;6.580;2022-08-03T06:28:17;20.50;99.90
52030;DHT22;38043;53.224;6.580;2022-08-03T06:30:44;20.60;99.90
52030;DHT22;38043;53.224;6.580;2022-08-03T06:33:09;20.70;99.90
52030;DHT22;38043;53.224;6.580;2022-08-03T06:35:35;20.80;99.90
52030;DHT22;38043;53.224;6.580;2022-08-03T06:38:01;20.90;99.90
52030;DHT22;38043;53.224;6.580;2022-08-03T06:40:27;21.10;99.90
52030;DHT22;38043;53.224;6.580;2022-08-03T06:43:00;21.30;99.90
52030;DHT22;38043;53.224;6.580;2022-08-03T06:45:27;21.40;99.90
52030;DHT22;38043;53.224;6.580;2022-08-03T06:48:14;21.60;99.90
52030;DHT22;38043;53.224;6.580;2022-08-03T06:50:40;21.80;99.90
52030;DHT22;38043;53.224;6.580;2022-08-03T06:53:13;22.10;99.90
52030;DHT22;38043;53.224;6.580;2022-08-03T06:55:38;22.20;99.90
52030;DHT22;38043;53.224;6.580;2022-08-03T06:58:04;22.20;99.90
52030;DHT22;38043;53.224;6.580;2022-08-03T07:00:30;22.30;99.90
52030;DHT22;38043;53.224;6.580;2022-08-03T07:02:55;22.40;99.90
52030;DHT22;38043;53.224;6.580;2022-08-03T07:05:21;22.50;99.90
52030;DHT22;38043;53.224;6.580;2022-08-03T07:07:50;22.60;99.90
52030;DHT22;38043;53.224;6.580;2022-08-03T07:10:18;22.70;99.90
52030;DHT22;38043;53.224;6.580;2022-08-03T07:12:44;22.80;99.90
52030;DHT22;38043;53.224;6.580;2022-08-03T07:15:10;22.80;99.90
52030;DHT22;38043;53.224;6.580;2022-08-03T07:17:35;22.90;99.90
52030;DHT22;38043;53.224;6.580;2022-08-03T07:20:04;23.00;99.90
52030;DHT22;38043;53.224;6.580;2022-08-03T07:22:31;23.00;99.90
52030;DHT22;38043;53.224;6.580;2022-08-03T07:24:57;23.10;99.90
52030;DHT22;38043;53.224;6.580;2022-08-03T07:27:23;23.20;99.90
52030;DHT22;38043;53.224;6.580;2022-08-03T07:29:51;23.20;99.90
52030;DHT22;38043;53.224;6.580;2022-08-03T07:32:20;23.30;99.90
52030;DHT22;38043;53.224;6.580;2022-08-03T07:34:45;23.30;99.90
52030;DHT22;38043;53.224;6.580;2022-08-03T07:37:11;23.40;99.90
52030;DHT22;38043;53.224;6.580;2022-08-03T07:39:40;23.40;99.90
52030;DHT22;38043;53.224;6.580;2022-08-03T07:42:05;23.40;99.90
52030;DHT22;38043;53.224;6.580;2022-08-03T07:44:31;23.50;99.90
52030;DHT22;38043;53.224;6.580;2022-08-03T07:46:57;23.50;99.90
52030;DHT22;38043;53.224;6.580;2022-08-03T07:49:22;23.60;99.90
52030;DHT22;38043;53.224;6.580;2022-08-03T07:51:48;23.80;99.90
52030;DHT22;38043;53.224;6.580;2022-08-03T07:54:34;23.90;99.90
52030;DHT22;38043;53.224;6.580;2022-08-03T07:56:59;24.10;99.90
52030;DHT22;38043;53.224;6.580;2022-08-03T07:59:25;24.20;99.90
52030;DHT22;38043;53.224;6.580;2022-08-03T08:01:51;24.30;99.90
52030;DHT22;38043;53.224;6.580;2022-08-03T08:04:18;24.40;99.90
52030;DHT22;38043;53.224;6.580;2022-08-03T08:06:44;24.50;99.90
52030;DHT22;38043;53.224;6.580;2022-08-03T08:09:09;24.50;99.90
52030;DHT22;38043;53.224;6.580;2022-08-03T08:11:39;24.60;99.90
52030;DHT22;38043;53.224;6.580;2022-08-03T08:14:04;24.60;99.90
52030;DHT22;38043;53.224;6.580;2022-08-03T08:16:31;24.70;99.90
52030;DHT22;38043;53.224;6.580;2022-08-03T08:18:57;24.80;99.90
52030;DHT22;38043;53.224;6.580;2022-08-03T08:21:23;24.90;99.90
52030;DHT22;38043;53.224;6.580;2022-08-03T08:23:49;24.90;99.90
52030;DHT22;38043;53.224;6.580;2022-08-03T08:26:15;25.00;99.90
52030;DHT22;38043;53.224;6.580;2022-08-03T08:28:40;25.10;99.90
52030;DHT22;38043;53.224;6.580;2022-08-03T08:31:06;25.20;99.90
52030;DHT22;38043;53.224;6.580;2022-08-03T08:33:32;25.40;99.90
52030;DHT22;38043;53.224;6.580;2022-08-03T08:36:00;25.60;99.90
52030;DHT22;38043;53.224;6.580;2022-08-03T08:38:29;25.60;99.90
52030;DHT22;38043;53.224;6.580;2022-08-03T08:40:54;25.60;99.90
52030;DHT22;38043;53.224;6.580;2022-08-03T08:43:20;25.70;99.90
52030;DHT22;38043;53.224;6.580;2022-08-03T08:45:51;25.70;99.90
52030;DHT22;38043;53.224;6.580;2022-08-03T08:48:24;25.70;99.90
52030;DHT22;38043;53.224;6.580;2022-08-03T08:50:54;25.80;99.90
52030;DHT22;38043;53.224;6.580;2022-08-03T08:53:21;25.90;99.90
52030;DHT22;38043;53.224;6.580;2022-08-03T08:55:47;25.80;99.90
52030;DHT22;38043;53.224;6.580;2022-08-03T08:58:16;25.90;99.90
52030;DHT22;38043;53.224;6.580;2022-08-03T09:00:44;25.90;99.90
52030;DHT22;38043;53.224;6.580;2022-08-03T09:03:11;25.90;99.90
52030;DHT22;38043;53.224;6.580;2022-08-03T09:05:41;25.90;99.90
52030;DHT22;38043;53.224;6.580;2022-08-03T09:08:10;25.90;99.90
52030;DHT22;38043;53.224;6.580;2022-08-03T09:10:36;25.90;99.90
52030;DHT22;38043;53.224;6.580;2022-08-03T09:13:02;26.20;99.90
52030;DHT22;38043;53.224;6.580;2022-08-03T09:15:29;26.40;99.90
52030;DHT22;38043;53.224;6.580;2022-08-03T09:18:02;26.50;99.90
52030;DHT22;38043;53.224;6.580;2022-08-03T09:20:31;26.50;99.90
52030;DHT22;38043;53.224;6.580;2022-08-03T09:25:32;26.40;99.90
52030;DHT22;38043;53.224;6.580;2022-08-03T09:28:24;26.40;99.90
52030;DHT22;38043;53.224;6.580;2022-08-03T09:30:58;26.50;99.90
52030;DHT22;38043;53.224;6.580;2022-08-03T09:33:27;26.70;99.90
52030;DHT22;38043;53.224;6.580;2022-08-03T09:35:53;26.90;99.90
52030;DHT22;38043;53.224;6.580;2022-08-03T09:38:22;26.90;99.90
52030;DHT22;38043;53.224;6.580;2022-08-03T09:40:50;26.90;99.90
52030;DHT22;38043;53.224;6.580;2022-08-03T09:43:17;27.00;99.90
52030;DHT22;38043;53.224;6.580;2022-08-03T09:45:43;27.00;99.90
52030;DHT22;38043;53.224;6.580;2022-08-03T09:48:25;27.00;99.90
52030;DHT22;38043;53.224;6.580;2022-08-03T09:50:53;27.10;99.90
52030;DHT22;38043;53.224;6.580;2022-08-03T09:53:19;27.20;99.90
52030;DHT22;38043;53.224;6.580;2022-08-03T09:55:55;27.10;99.90
52030;DHT22;38043;53.224;6.580;2022-08-03T09:58:26;27.10;99.90
52030;DHT22;38043;53.224;6.580;2022-08-03T10:01:05;27.10;99.90
52030;DHT22;38043;53.224;6.580;2022-08-03T10:03:35;27.20;99.90
52030;DHT22;38043;53.224;6.580;2022-08-03T10:06:15;27.20;99.90
52030;DHT22;38043;53.224;6.580;2022-08-03T10:08:44;27.30;99.90
52030;DHT22;38043;53.224;6.580;2022-08-03T10:11:10;27.40;99.90
52030;DHT22;38043;53.224;6.580;2022-08-03T10:13:37;27.50;99.90
52030;DHT22;38043;53.224;6.580;2022-08-03T10:16:02;27.60;99.90
52030;DHT22;38043;53.224;6.580;2022-08-03T10:18:29;27.70;99.90
52030;DHT22;38043;53.224;6.580;2022-08-03T10:21:01;27.80;99.90
52030;DHT22;38043;53.224;6.580;2022-08-03T10:23:28;27.90;99.90
52030;DHT22;38043;53.224;6.580;2022-08-03T10:26:01;28.20;99.90
52030;DHT22;38043;53.224;6.580;2022-08-03T10:28:34;28.50;99.90
52030;DHT22;38043;53.224;6.580;2022-08-03T10:31:01;28.70;99.90
52030;DHT22;38043;53.224;6.580;2022-08-03T10:33:31;29.00;99.90
52030;DHT22;38043;53.224;6.580;2022-08-03T10:36:01;29.10;99.90
52030;DHT22;38043;53.224;6.580;2022-08-03T10:38:35;29.30;99.90
52030;DHT22;38043;53.224;6.580;2022-08-03T10:41:06;29.40;99.90
52030;DHT22;38043;53.224;6.580;2022-08-03T10:43:40;29.60;99.90
52030;DHT22;38043;53.224;6.580;2022-08-03T10:46:14;29.90;99.90
52030;DHT22;38043;53.224;6.580;2022-08-03T10:48:41;30.00;99.80
52030;DHT22;38043;53.224;6.580;2022-08-03T10:51:11;30.20;99.90
52030;DHT22;38043;53.224;6.580;2022-08-03T10:53:40;30.50;99.50
52030;DHT22;38043;53.224;6.580;2022-08-03T11:02:12;30.90;97.20
52030;DHT22;38043;53.224;6.580;2022-08-03T11:04:41;31.10;98.00
52030;DHT22;38043;53.224;6.580;2022-08-03T11:07:23;31.30;97.70
52030;DHT22;38043;53.224;6.580;2022-08-03T11:09:54;31.30;95.80
52030;DHT22;38043;53.224;6.580;2022-08-03T11:14:49;31.50;96.20
52030;DHT22;38043;53.224;6.580;2022-08-03T11:17:15;31.50;95.60
52030;DHT22;38043;53.224;6.580;2022-08-03T11:19:45;31.40;95.90
52030;DHT22;38043;53.224;6.580;2022-08-03T11:22:11;31.50;95.30
52030;DHT22;38043;53.224;6.580;2022-08-03T11:27:16;31.90;94.50
52030;DHT22;38043;53.224;6.580;2022-08-03T11:29:59;32.10;94.10
52030;DHT22;38043;53.224;6.580;2022-08-03T11:42:57;32.20;92.60
52030;DHT22;38043;53.224;6.580;2022-08-03T11:45:23;32.20;92.50
52030;DHT22;38043;53.224;6.580;2022-08-03T11:47:53;32.20;92.50
52030;DHT22;38043;53.224;6.580;2022-08-03T11:50:19;32.20;92.30
52030;DHT22;38043;53.224;6.580;2022-08-03T11:52:46;32.20;92.30
52030;DHT22;38043;53.224;6.580;2022-08-03T11:55:14;32.30;92.10
52030;DHT22;38043;53.224;6.580;2022-08-03T11:57:40;32.30;92.10
52030;DHT22;38043;53.224;6.580;2022-08-03T12:00:29;32.40;92.20
52030;DHT22;38043;53.224;6.580;2022-08-03T12:03:04;32.40;91.70
52030;DHT22;38043;53.224;6.580;2022-08-03T12:05:42;32.30;91.20
52030;DHT22;38043;53.224;6.580;2022-08-03T12:08:09;32.30;89.70
52030;DHT22;38043;53.224;6.580;2022-08-03T12:10:39;32.30;90.70
52030;DHT22;38043;53.224;6.580;2022-08-03T12:13:09;32.30;90.60
52030;DHT22;38043;53.224;6.580;2022-08-03T12:15:35;32.30;91.20
52030;DHT22;38043;53.224;6.580;2022-08-03T12:18:11;32.40;91.20
52030;DHT22;38043;53.224;6.580;2022-08-03T12:20:37;32.50;91.30
52030;DHT22;38043;53.224;6.580;2022-08-03T12:23:04;32.50;90.90
52030;DHT22;38043;53.224;6.580;2022-08-03T12:25:31;32.40;90.40
52030;DHT22;38043;53.224;6.580;2022-08-03T12:28:29;32.50;90.90
52030;DHT22;38043;53.224;6.580;2022-08-03T12:31:01;32.50;90.30
52030;DHT22;38043;53.224;6.580;2022-08-03T12:36:19;32.50;89.40
52030;DHT22;38043;53.224;6.580;2022-08-03T12:38:54;32.50;90.40
52030;DHT22;38043;53.224;6.580;2022-08-03T12:41:27;32.40;90.40
52030;DHT22;38043;53.224;6.580;2022-08-03T12:43:57;32.60;88.20
52030;DHT22;38043;53.224;6.580;2022-08-03T12:46:35;32.60;89.60
52030;DHT22;38043;53.224;6.580;2022-08-03T12:51:32;32.40;88.50
52030;DHT22;38043;53.224;6.580;2022-08-03T12:53:58;32.40;88.70
52030;DHT22;38043;53.224;6.580;2022-08-03T12:56:25;32.40;89.60
52030;DHT22;38043;53.224;6.580;2022-08-03T12:58:50;32.30;88.60
52030;DHT22;38043;53.224;6.580;2022-08-03T13:01:18;32.20;88.60
52030;DHT22;38043;53.224;6.580;2022-08-03T13:03:48;32.20;88.30
52030;DHT22;38043;53.224;6.580;2022-08-03T13:06:23;32.20;87.30
52030;DHT22;38043;53.224;6.580;2022-08-03T13:08:49;32.10;86.50
52030;DHT22;38043;53.224;6.580;2022-08-03T13:11:26;32.10;87.80
52030;DHT22;38043;53.224;6.580;2022-08-03T13:13:53;32.10;87.40
52030;DHT22;38043;53.224;6.580;2022-08-03T13:16:20;32.10;85.70
52030;DHT22;38043;53.224;6.580;2022-08-03T13:18:46;32.10;84.90
52030;DHT22;38043;53.224;6.580;2022-08-03T13:21:14;32.10;84.90
52030;DHT22;38043;53.224;6.580;2022-08-03T13:23:40;32.20;85.10
52030;DHT22;38043;53.224;6.580;2022-08-03T13:26:06;32.40;84.50
52030;DHT22;38043;53.224;6.580;2022-08-03T13:28:34;32.50;84.10
52030;DHT22;38043;53.224;6.580;2022-08-03T13:31:00;32.50;84.70
52030;DHT22;38043;53.224;6.580;2022-08-03T13:33:26;32.50;84.70
52030;DHT22;38043;53.224;6.580;2022-08-03T13:35:53;32.60;85.30
52030;DHT22;38043;53.224;6.580;2022-08-03T13:38:22;32.70;84.10
52030;DHT22;38043;53.224;6.580;2022-08-03T13:40:47;32.70;82.40
52030;DHT22;38043;53.224;6.580;2022-08-03T13:43:13;32.70;83.20
52030;DHT22;38043;53.224;6.580;2022-08-03T13:45:39;32.70;81.70
52030;DHT22;38043;53.224;6.580;2022-08-03T13:48:04;32.80;80.50
52030;DHT22;38043;53.224;6.580;2022-08-03T13:50:30;32.80;81.40
52030;DHT22;38043;53.224;6.580;2022-08-03T13:52:56;32.80;81.20
52030;DHT22;38043;53.224;6.580;2022-08-03T13:55:22;32.90;77.90
52030;DHT22;38043;53.224;6.580;2022-08-03T13:57:48;32.80;79.40
52030;DHT22;38043;53.224;6.580;2022-08-03T14:00:17;33.00;80.30
52030;DHT22;38043;53.224;6.580;2022-08-03T14:02:43;33.20;78.90
52030;DHT22;38043;53.224;6.580;2022-08-03T14:05:10;33.20;78.20
52030;DHT22;38043;53.224;6.580;2022-08-03T14:07:35;33.10;77.90
52030;DHT22;38043;53.224;6.580;2022-08-03T14:10:04;32.90;78.00
52030;DHT22;38043;53.224;6.580;2022-08-03T14:12:30;33.00;77.00
52030;DHT22;38043;53.224;6.580;2022-08-03T14:14:56;33.10;77.70
52030;DHT22;38043;53.224;6.580;2022-08-03T14:17:21;33.60;77.70
52030;DHT22;38043;53.224;6.580;2022-08-03T14:19:47;34.10;77.20
52030;DHT22;38043;53.224;6.580;2022-08-03T14:22:13;34.60;76.40
52030;DHT22;38043;53.224;6.580;2022-08-03T14:24:38;34.80;75.50
52030;DHT22;38043;53.224;6.580;2022-08-03T14:27:04;34.50;74.40
52030;DHT22;38043;53.224;6.580;2022-08-03T14:29:30;34.40;74.70
52030;DHT22;38043;53.224;6.580;2022-08-03T14:32:00;34.20;74.30
52030;DHT22;38043;53.224;6.580;2022-08-03T14:34:26;34.00;74.30
52030;DHT22;38043;53.224;6.580;2022-08-03T14:36:52;33.70;74.70
52030;DHT22;38043;53.224;6.580;2022-08-03T14:39:18;33.50;75.80
52030;DHT22;38043;53.224;6.580;2022-08-03T14:41:43;33.60;75.10
52030;DHT22;38043;53.224;6.580;2022-08-03T14:44:09;33.70;75.50
52030;DHT22;38043;53.224;6.580;2022-08-03T14:46:35;33.70;74.20
52030;DHT22;38043;53.224;6.580;2022-08-03T14:49:00;33.80;75.30
52030;DHT22;38043;53.224;6.580;2022-08-03T14:51:26;33.90;74.80
52030;DHT22;38043;53.224;6.580;2022-08-03T14:53:55;33.60;75.00
52030;DHT22;38043;53.224;6.580;2022-08-03T14:56:23;33.20;74.40
52030;DHT22;38043;53.224;6.580;2022-08-03T14:58:49;33.10;74.70
52030;DHT22;38043;53.224;6.580;2022-08-03T15:01:18;32.80;75.00
52030;DHT22;38043;53.224;6.580;2022-08-03T15:03:46;32.50;74.90
52030;DHT22;38043;53.224;6.580;2022-08-03T15:06:13;32.20;74.90
52030;DHT22;38043;53.224;6.580;2022-08-03T15:08:38;32.00;74.10
52030;DHT22;38043;53.224;6.580;2022-08-03T15:11:04;31.60;73.40
52030;DHT22;38043;53.224;6.580;2022-08-03T15:13:30;31.40;72.40
52030;DHT22;38043;53.224;6.580;2022-08-03T15:15:55;31.20;72.60
52030;DHT22;38043;53.224;6.580;2022-08-03T15:18:22;30.90;73.70
52030;DHT22;38043;53.224;6.580;2022-08-03T15:20:48;30.70;74.40
52030;DHT22;38043;53.224;6.580;2022-08-03T15:23:15;30.60;74.80
52030;DHT22;38043;53.224;6.580;2022-08-03T15:25:42;30.40;75.00
52030;DHT22;38043;53.224;6.580;2022-08-03T15:28:08;30.30;75.20
52030;DHT22;38043;53.224;6.580;2022-08-03T15:30:34;30.30;74.90
52030;DHT22;38043;53.224;6.580;2022-08-03T15:33:03;30.10;75.50
52030;DHT22;38043;53.224;6.580;2022-08-03T15:35:29;29.90;75.10
52030;DHT22;38043;53.224;6.580;2022-08-03T15:37:54;29.80;75.20
52030;DHT22;38043;53.224;6.580;2022-08-03T15:40:20;29.70;75.10
52030;DHT22;38043;53.224;6.580;2022-08-03T15:42:46;29.70;75.40
52030;DHT22;38043;53.224;6.580;2022-08-03T15:45:11;29.60;74.90
52030;DHT22;38043;53.224;6.580;2022-08-03T15:47:37;29.50;75.30
52030;DHT22;38043;53.224;6.580;2022-08-03T15:50:03;29.40;75.80
52030;DHT22;38043;53.224;6.580;2022-08-03T15:52:29;29.40;76.20
52030;DHT22;38043;53.224;6.580;2022-08-03T15:54:55;29.30;76.40
52030;DHT22;38043;53.224;6.580;2022-08-03T15:57:21;29.20;76.00
52030;DHT22;38043;53.224;6.580;2022-08-03T15:59:47;29.20;75.60
52030;DHT22;38043;53.224;6.580;2022-08-03T16:02:12;29.10;75.80
52030;DHT22;38043;53.224;6.580;2022-08-03T16:04:38;29.10;76.10
52030;DHT22;38043;53.224;6.580;2022-08-03T16:07:04;29.00;76.40
52030;DHT22;38043;53.224;6.580;2022-08-03T16:09:33;28.90;74.90
52030;DHT22;38043;53.224;6.580;2022-08-03T16:11:58;28.80;75.00
52030;DHT22;38043;53.224;6.580;2022-08-03T16:14:24;28.70;74.30
52030;DHT22;38043;53.224;6.580;2022-08-03T16:16:53;28.70;74.00
52030;DHT22;38043;53.224;6.580;2022-08-03T16:19:19;28.60;74.80
52030;DHT22;38043;53.224;6.580;2022-08-03T16:21:44;28.50;75.20